sensor_id;sensor_type;location;lat;lon;timestamp;P1;durP1;ratioP1;P2;durP2;ratioP2
18200;SDS011;9226;47.858;9.594;2023-04-24T00:00:30;1.70;;;1.20;;
18200;SDS011;9226;47.858;9.594;2023-04-24T00:02:56;2.13;;;1.50;;
18200;SDS011;9226;47.858;9.594;2023-04-24T00:05:22;2.20;;;1.20;;
18200;SDS011;9226;47.858;9.594;2023-04-24T00:07:48;5.37;;;2.67;;
18200;SDS011;9226;47.858;9.594;2023-04-24T00:10:17;1.83;;;1.30;;
18200;SDS011;9226;47.858;9.594;2023-04-24T00:12:43;2.20;;;1.50;;
18200;SDS011;9226;47.858;9.594;2023-04-24T00:15:08;4.10;;;1.30;;
18200;SDS011;9226;47.858;9.594;2023-04-24T00:17:34;1.87;;;1.40;;
18200;SDS011;9226;47.858;9.594;2023-04-24T00:20:00;3.80;;;2.00;;
18200;SDS011;9226;47.858;9.594;2023-04-24T00:22:26;3.40;;;1.47;;
18200;SDS011;9226;47.858;9.594;2023-04-24T00:24:52;4.97;;;1.73;;
18200;SDS011;9226;47.858;9.594;2023-04-24T00:27:18;1.80;;;1.33;;
18200;SDS011;9226;47.858;9.594;2023-04-24T00:29:43;2.70;;;1.77;;
18200;SDS011;9226;47.858;9.594;2023-04-24T00:32:08;4.67;;;1.70;;
18200;SDS011;9226;47.858;9.594;2023-04-24T00:34:34;4.27;;;1.60;;
18200;SDS011;9226;47.858;9.594;2023-04-24T00:36:59;3.83;;;1.53;;
18200;SDS011;9226;47.858;9.594;2023-04-24T00:39:25;1.83;;;1.33;;
18200;SDS011;9226;47.858;9.594;2023-04-24T00:41:50;3.23;;;1.50;;
18200;SDS011;9226;47.858;9.594;2023-04-24T00:44:16;6.47;;;1.50;;
18200;SDS011;9226;47.858;9.594;2023-04-24T00:46:42;3.63;;;1.70;;
18200;SDS011;9226;47.858;9.594;2023-04-24T00:49:07;5.27;;;1.67;;
18200;SDS011;9226;47.858;9.594;2023-04-24T00:51:33;2.67;;;1.70;;
18200;SDS011;9226;47.858;9.594;2023-04-24T00:53:59;2.50;;;1.70;;
18200;SDS011;9226;47.858;9.594;2023-04-24T00:56:25;3.63;;;1.60;;
18200;SDS011;9226;47.858;9.594;2023-04-24T00:58:51;2.13;;;1.60;;
18200;SDS011;9226;47.858;9.594;2023-04-24T01:01:18;3.07;;;1.80;;
18200;SDS011;9226;47.858;9.594;2023-04-24T01:03:45;6.10;;;1.60;;
18200;SDS011;9226;47.858;9.594;2023-04-24T01:06:11;3.90;;;1.40;;
18200;SDS011;9226;47.858;9.594;2023-04-24T01:08:37;2.97;;;1.37;;
18200;SDS011;9226;47.858;9.594;2023-04-24T01:11:04;3.90;;;1.80;;
18200;SDS011;9226;47.858;9.594;2023-04-24T01:13:30;1.83;;;1.43;;
18200;SDS011;9226;47.858;9.594;2023-04-24T01:15:56;2.23;;;1.67;;
18200;SDS011;9226;47.858;9.594;2023-04-24T01:18:22;4.03;;;1.67;;
18200;SDS011;9226;47.858;9.594;2023-04-24T01:20:47;3.87;;;1.87;;
18200;SDS011;9226;47.858;9.594;2023-04-24T01:23:15;2.10;;;1.50;;
18200;SDS011;9226;47.858;9.594;2023-04-24T01:25:42;2.63;;;1.60;;
18200;SDS011;9226;47.858;9.594;2023-04-24T01:28:08;2.40;;;1.70;;
18200;SDS011;9226;47.858;9.594;2023-04-24T01:30:33;3.20;;;1.70;;
18200;SDS011;9226;47.858;9.594;2023-04-24T01:32:59;3.93;;;1.77;;
18200;SDS011;9226;47.858;9.594;2023-04-24T01:35:25;3.00;;;1.70;;
18200;SDS011;9226;47.858;9.594;2023-04-24T01:37:51;2.80;;;1.83;;
18200;SDS011;9226;47.858;9.594;2023-04-24T01:40:16;2.70;;;1.50;;
18200;SDS011;9226;47.858;9.594;2023-04-24T01:42:42;3.17;;;1.60;;
18200;SDS011;9226;47.858;9.594;2023-04-24T01:45:08;4.63;;;1.83;;
18200;SDS011;9226;47.858;9.594;2023-04-24T01:47:35;2.27;;;1.60;;
18200;SDS011;9226;47.858;9.594;2023-04-24T01:50:01;3.27;;;1.70;;
18200;SDS011;9226;47.858;9.594;2023-04-24T01:52:27;2.17;;;1.30;;
18200;SDS011;9226;47.858;9.594;2023-04-24T01:54:56;2.90;;;1.47;;
18200;SDS011;9226;47.858;9.594;2023-04-24T01:57:21;5.60;;;1.63;;
18200;SDS011;9226;47.858;9.594;2023-04-24T01:59:47;2.40;;;1.50;;
18200;SDS011;9226;47.858;9.594;2023-04-24T02:02:12;2.03;;;1.27;;
18200;SDS011;9226;47.858;9.594;2023-04-24T02:04:39;2.27;;;1.57;;
18200;SDS011;9226;47.858;9.594;2023-04-24T02:07:04;2.53;;;1.70;;
18200;SDS011;9226;47.858;9.594;2023-04-24T02:09:30;2.80;;;1.30;;
18200;SDS011;9226;47.858;9.594;2023-04-24T02:11:55;2.23;;;1.40;;
18200;SDS011;9226;47.858;9.594;2023-04-24T02:14:21;2.90;;;1.40;;
18200;SDS011;9226;47.858;9.594;2023-04-24T02:16:46;1.50;;;1.27;;
18200;SDS011;9226;47.858;9.594;2023-04-24T02:19:12;4.17;;;1.50;;
18200;SDS011;9226;47.858;9.594;2023-04-24T02:21:37;2.20;;;1.40;;
18200;SDS011;9226;47.858;9.594;2023-04-24T02:24:02;3.37;;;1.70;;
18200;SDS011;9226;47.858;9.594;2023-04-24T02:26:28;2.00;;;1.40;;
18200;SDS011;9226;47.858;9.594;2023-04-24T02:28:53;2.50;;;1.50;;
18200;SDS011;9226;47.858;9.594;2023-04-24T02:31:19;2.97;;;1.40;;
18200;SDS011;9226;47.858;9.594;2023-04-24T02:33:44;2.40;;;1.60;;
18200;SDS011;9226;47.858;9.594;2023-04-24T02:36:09;2.47;;;1.80;;
18200;SDS011;9226;47.858;9.594;2023-04-24T02:38:35;2.13;;;1.37;;
18200;SDS011;9226;47.858;9.594;2023-04-24T02:41:00;4.80;;;1.57;;
18200;SDS011;9226;47.858;9.594;2023-04-24T02:43:27;2.53;;;1.40;;
18200;SDS011;9226;47.858;9.594;2023-04-24T02:45:52;1.50;;;1.27;;
18200;SDS011;9226;47.858;9.594;2023-04-24T02:48:18;3.00;;;0.87;;
18200;SDS011;9226;47.858;9.594;2023-04-24T02:50:43;3.10;;;1.30;;
18200;SDS011;9226;47.858;9.594;2023-04-24T02:53:09;1.13;;;0.90;;
18200;SDS011;9226;47.858;9.594;2023-04-24T02:55:35;1.33;;;0.90;;
18200;SDS011;9226;47.858;9.594;2023-04-24T02:58:01;1.53;;;0.90;;
18200;SDS011;9226;47.858;9.594;2023-04-24T03:00:26;1.23;;;0.90;;
18200;SDS011;9226;47.858;9.594;2023-04-24T03:02:51;1.70;;;0.90;;
18200;SDS011;9226;47.858;9.594;2023-04-24T03:05:18;2.07;;;0.80;;
18200;SDS011;9226;47.858;9.594;2023-04-24T03:07:43;1.07;;;0.90;;
18200;SDS011;9226;47.858;9.594;2023-04-24T03:10:08;0.80;;;0.70;;
18200;SDS011;9226;47.858;9.594;2023-04-24T03:12:34;2.60;;;0.77;;
18200;SDS011;9226;47.858;9.594;2023-04-24T03:14:59;0.80;;;0.70;;
18200;SDS011;9226;47.858;9.594;2023-04-24T03:17:25;1.63;;;0.80;;
18200;SDS011;9226;47.858;9.594;2023-04-24T03:19:50;1.60;;;0.70;;
18200;SDS011;9226;47.858;9.594;2023-04-24T03:22:16;1.33;;;0.90;;
18200;SDS011;9226;47.858;9.594;2023-04-24T03:24:41;1.90;;;0.77;;
18200;SDS011;9226;47.858;9.594;2023-04-24T03:27:07;1.53;;;0.77;;
18200;SDS011;9226;47.858;9.594;2023-04-24T03:29:32;2.57;;;0.80;;
18200;SDS011;9226;47.858;9.594;2023-04-24T03:31:58;1.37;;;0.90;;
18200;SDS011;9226;47.858;9.594;2023-04-24T03:34:23;1.00;;;0.73;;
18200;SDS011;9226;47.858;9.594;2023-04-24T03:36:48;1.33;;;0.80;;
18200;SDS011;9226;47.858;9.594;2023-04-24T03:39:14;1.20;;;0.60;;
18200;SDS011;9226;47.858;9.594;2023-04-24T03:41:39;1.77;;;0.80;;
18200;SDS011;9226;47.858;9.594;2023-04-24T03:44:05;3.67;;;1.00;;
18200;SDS011;9226;47.858;9.594;2023-04-24T03:46:30;3.87;;;1.10;;
18200;SDS011;9226;47.858;9.594;2023-04-24T03:48:56;1.67;;;1.00;;
18200;SDS011;9226;47.858;9.594;2023-04-24T03:51:21;2.47;;;0.90;;
18200;SDS011;9226;47.858;9.594;2023-04-24T03:53:47;1.10;;;0.90;;
18200;SDS011;9226;47.858;9.594;2023-04-24T03:56:13;1.33;;;0.93;;
18200;SDS011;9226;47.858;9.594;2023-04-24T03:58:39;2.23;;;1.03;;
18200;SDS011;9226;47.858;9.594;2023-04-24T04:01:04;4.30;;;1.00;;
18200;SDS011;9226;47.858;9.594;2023-04-24T04:03:30;4.03;;;1.10;;
18200;SDS011;9226;47.858;9.594;2023-04-24T04:05:55;3.27;;;0.90;;
18200;SDS011;9226;47.858;9.594;2023-04-24T04:08:21;1.13;;;0.87;;
18200;SDS011;9226;47.858;9.594;2023-04-24T04:10:46;1.17;;;1.07;;
18200;SDS011;9226;47.858;9.594;2023-04-24T04:13:12;1.40;;;0.97;;
18200;SDS011;9226;47.858;9.594;2023-04-24T04:15:38;3.87;;;1.40;;
18200;SDS011;9226;47.858;9.594;2023-04-24T04:18:04;1.67;;;0.90;;
18200;SDS011;9226;47.858;9.594;2023-04-24T04:20:30;1.73;;;0.90;;
18200;SDS011;9226;47.858;9.594;2023-04-24T04:22:55;0.77;;;0.57;;
18200;SDS011;9226;47.858;9.594;2023-04-24T04:25:21;0.93;;;0.70;;
18200;SDS011;9226;47.858;9.594;2023-04-24T04:27:48;0.83;;;0.60;;
18200;SDS011;9226;47.858;9.594;2023-04-24T04:30:13;2.90;;;0.80;;
18200;SDS011;9226;47.858;9.594;2023-04-24T04:32:39;0.60;;;0.60;;
18200;SDS011;9226;47.858;9.594;2023-04-24T04:35:04;0.60;;;0.57;;
18200;SDS011;9226;47.858;9.594;2023-04-24T04:37:30;0.53;;;0.50;;
18200;SDS011;9226;47.858;9.594;2023-04-24T04:39:56;0.93;;;0.70;;
18200;SDS011;9226;47.858;9.594;2023-04-24T04:42:23;2.80;;;0.50;;
18200;SDS011;9226;47.858;9.594;2023-04-24T04:44:49;1.27;;;0.60;;
18200;SDS011;9226;47.858;9.594;2023-04-24T04:47:15;0.50;;;0.50;;
18200;SDS011;9226;47.858;9.594;2023-04-24T04:49:42;1.07;;;0.60;;
18200;SDS011;9226;47.858;9.594;2023-04-24T04:52:08;0.73;;;0.73;;
18200;SDS011;9226;47.858;9.594;2023-04-24T04:54:34;0.63;;;0.60;;
18200;SDS011;9226;47.858;9.594;2023-04-24T04:56:59;2.40;;;0.87;;
18200;SDS011;9226;47.858;9.594;2023-04-24T04:59:26;1.57;;;1.10;;
18200;SDS011;9226;47.858;9.594;2023-04-24T05:01:52;1.87;;;1.00;;
18200;SDS011;9226;47.858;9.594;2023-04-24T05:04:17;1.60;;;1.20;;
18200;SDS011;9226;47.858;9.594;2023-04-24T05:06:43;1.30;;;0.90;;
18200;SDS011;9226;47.858;9.594;2023-04-24T05:09:08;1.13;;;0.80;;
18200;SDS011;9226;47.858;9.594;2023-04-24T05:11:34;1.27;;;0.90;;
18200;SDS011;9226;47.858;9.594;2023-04-24T05:14:00;2.63;;;1.00;;
18200;SDS011;9226;47.858;9.594;2023-04-24T05:16:25;1.43;;;0.80;;
18200;SDS011;9226;47.858;9.594;2023-04-24T05:18:51;0.97;;;0.80;;
18200;SDS011;9226;47.858;9.594;2023-04-24T05:21:16;2.13;;;0.70;;
18200;SDS011;9226;47.858;9.594;2023-04-24T05:23:41;2.10;;;0.80;;
18200;SDS011;9226;47.858;9.594;2023-04-24T05:26:07;1.20;;;0.70;;
18200;SDS011;9226;47.858;9.594;2023-04-24T05:28:32;1.37;;;0.70;;
18200;SDS011;9226;47.858;9.594;2023-04-24T05:30:58;0.50;;;0.50;;
18200;SDS011;9226;47.858;9.594;2023-04-24T05:33:24;0.50;;;0.50;;
18200;SDS011;9226;47.858;9.594;2023-04-24T05:35:50;2.40;;;0.60;;
18200;SDS011;9226;47.858;9.594;2023-04-24T05:38:15;0.60;;;0.60;;
18200;SDS011;9226;47.858;9.594;2023-04-24T05:40:44;0.70;;;0.50;;
18200;SDS011;9226;47.858;9.594;2023-04-24T05:43:10;0.60;;;0.60;;
18200;SDS011;9226;47.858;9.594;2023-04-24T05:45:35;0.60;;;0.60;;
18200;SDS011;9226;47.858;9.594;2023-04-24T05:48:01;0.60;;;0.60;;
18200;SDS011;9226;47.858;9.594;2023-04-24T05:50:27;0.50;;;0.50;;
18200;SDS011;9226;47.858;9.594;2023-04-24T05:52:52;0.47;;;0.43;;
18200;SDS011;9226;47.858;9.594;2023-04-24T05:55:18;0.93;;;0.50;;
18200;SDS011;9226;47.858;9.594;2023-04-24T05:57:44;2.47;;;0.50;;
18200;SDS011;9226;47.858;9.594;2023-04-24T06:00:09;1.03;;;0.60;;
18200;SDS011;9226;47.858;9.594;2023-04-24T06:02:37;0.50;;;0.50;;
18200;SDS011;9226;47.858;9.594;2023-04-24T06:05:03;0.50;;;0.50;;
18200;SDS011;9226;47.858;9.594;2023-04-24T06:07:29;2.47;;;2.27;;
18200;SDS011;9226;47.858;9.594;2023-04-24T06:09:55;0.87;;;0.60;;
18200;SDS011;9226;47.858;9.594;2023-04-24T06:12:21;1.60;;;0.67;;
18200;SDS011;9226;47.858;9.594;2023-04-24T06:14:47;0.63;;;0.63;;
18200;SDS011;9226;47.858;9.594;2023-04-24T06:17:12;1.33;;;0.50;;
18200;SDS011;9226;47.858;9.594;2023-04-24T06:19:38;1.27;;;0.80;;
18200;SDS011;9226;47.858;9.594;2023-04-24T06:22:04;0.93;;;0.70;;
18200;SDS011;9226;47.858;9.594;2023-04-24T06:24:29;0.50;;;0.50;;
18200;SDS011;9226;47.858;9.594;2023-04-24T06:26:55;1.40;;;0.60;;
18200;SDS011;9226;47.858;9.594;2023-04-24T06:29:22;3.27;;;0.60;;
18200;SDS011;9226;47.858;9.594;2023-04-24T06:31:47;0.60;;;0.60;;
18200;SDS011;9226;47.858;9.594;2023-04-24T06:34:13;1.13;;;0.70;;
18200;SDS011;9226;47.858;9.594;2023-04-24T06:36:38;4.17;;;0.60;;
18200;SDS011;9226;47.858;9.594;2023-04-24T06:39:03;1.43;;;0.80;;
18200;SDS011;9226;47.858;9.594;2023-04-24T06:41:29;0.73;;;0.63;;
18200;SDS011;9226;47.858;9.594;2023-04-24T06:43:54;2.20;;;0.60;;
18200;SDS011;9226;47.858;9.594;2023-04-24T06:46:20;1.00;;;0.80;;
18200;SDS011;9226;47.858;9.594;2023-04-24T06:48:48;0.87;;;0.70;;
18200;SDS011;9226;47.858;9.594;2023-04-24T06:51:15;2.17;;;0.60;;
18200;SDS011;9226;47.858;9.594;2023-04-24T06:53:42;0.60;;;0.60;;
18200;SDS011;9226;47.858;9.594;2023-04-24T06:56:07;0.70;;;0.70;;
18200;SDS011;9226;47.858;9.594;2023-04-24T06:58:33;0.83;;;0.63;;
18200;SDS011;9226;47.858;9.594;2023-04-24T07:00:58;2.80;;;0.70;;
18200;SDS011;9226;47.858;9.594;2023-04-24T07:03:24;0.70;;;0.70;;
18200;SDS011;9226;47.858;9.594;2023-04-24T07:05:49;0.60;;;0.60;;
18200;SDS011;9226;47.858;9.594;2023-04-24T07:08:15;1.47;;;0.80;;
18200;SDS011;9226;47.858;9.594;2023-04-24T07:10:42;1.00;;;0.90;;
18200;SDS011;9226;47.858;9.594;2023-04-24T07:13:07;0.87;;;0.80;;
18200;SDS011;9226;47.858;9.594;2023-04-24T07:15:33;0.80;;;0.80;;
18200;SDS011;9226;47.858;9.594;2023-04-24T07:17:59;2.33;;;0.90;;
18200;SDS011;9226;47.858;9.594;2023-04-24T07:20:24;2.17;;;0.87;;
18200;SDS011;9226;47.858;9.594;2023-04-24T07:22:50;2.90;;;0.93;;
18200;SDS011;9226;47.858;9.594;2023-04-24T07:25:16;1.23;;;0.90;;
18200;SDS011;9226;47.858;9.594;2023-04-24T07:27:42;1.00;;;0.90;;
18200;SDS011;9226;47.858;9.594;2023-04-24T07:30:08;1.90;;;1.10;;
18200;SDS011;9226;47.858;9.594;2023-04-24T07:32:33;2.73;;;1.10;;
18200;SDS011;9226;47.858;9.594;2023-04-24T07:34:59;1.60;;;1.00;;
18200;SDS011;9226;47.858;9.594;2023-04-24T07:37:25;0.93;;;0.83;;
18200;SDS011;9226;47.858;9.594;2023-04-24T07:39:51;2.20;;;1.30;;
18200;SDS011;9226;47.858;9.594;2023-04-24T07:42:16;2.87;;;1.10;;
18200;SDS011;9226;47.858;9.594;2023-04-24T07:44:41;1.87;;;1.10;;
18200;SDS011;9226;47.858;9.594;2023-04-24T07:47:07;1.77;;;1.20;;
18200;SDS011;9226;47.858;9.594;2023-04-24T07:49:33;2.73;;;1.10;;
18200;SDS011;9226;47.858;9.594;2023-04-24T07:51:59;1.60;;;1.13;;
18200;SDS011;9226;47.858;9.594;2023-04-24T07:54:26;2.07;;;1.53;;
18200;SDS011;9226;47.858;9.594;2023-04-24T07:56:52;2.10;;;1.30;;
18200;SDS011;9226;47.858;9.594;2023-04-24T07:59:17;2.03;;;1.20;;
18200;SDS011;9226;47.858;9.594;2023-04-24T08:01:43;2.50;;;1.30;;
18200;SDS011;9226;47.858;9.594;2023-04-24T08:04:08;2.10;;;1.40;;
18200;SDS011;9226;47.858;9.594;2023-04-24T08:06:34;3.03;;;1.40;;
18200;SDS011;9226;47.858;9.594;2023-04-24T08:09:00;2.07;;;1.33;;
18200;SDS011;9226;47.858;9.594;2023-04-24T08:11:25;3.13;;;1.40;;
18200;SDS011;9226;47.858;9.594;2023-04-24T08:13:51;1.80;;;1.40;;
18200;SDS011;9226;47.858;9.594;2023-04-24T08:16:16;1.57;;;1.20;;
18200;SDS011;9226;47.858;9.594;2023-04-24T08:18:42;1.50;;;1.10;;
18200;SDS011;9226;47.858;9.594;2023-04-24T08:21:07;1.30;;;1.17;;
18200;SDS011;9226;47.858;9.594;2023-04-24T08:23:33;2.73;;;0.93;;
18200;SDS011;9226;47.858;9.594;2023-04-24T08:25:58;1.23;;;1.13;;
18200;SDS011;9226;47.858;9.594;2023-04-24T08:28:23;2.00;;;1.20;;
18200;SDS011;9226;47.858;9.594;2023-04-24T08:30:49;4.47;;;1.30;;
18200;SDS011;9226;47.858;9.594;2023-04-24T08:33:20;1.83;;;1.27;;
18200;SDS011;9226;47.858;9.594;2023-04-24T08:35:46;2.87;;;1.43;;
18200;SDS011;9226;47.858;9.594;2023-04-24T08:38:11;3.63;;;2.40;;
18200;SDS011;9226;47.858;9.594;2023-04-24T08:40:37;7.40;;;1.90;;
18200;SDS011;9226;47.858;9.594;2023-04-24T08:43:03;4.70;;;1.90;;
18200;SDS011;9226;47.858;9.594;2023-04-24T08:45:28;3.20;;;1.43;;
18200;SDS011;9226;47.858;9.594;2023-04-24T08:47:54;1.67;;;1.43;;
18200;SDS011;9226;47.858;9.594;2023-04-24T08:50:21;1.90;;;1.57;;
18200;SDS011;9226;47.858;9.594;2023-04-24T08:52:49;2.53;;;1.47;;
18200;SDS011;9226;47.858;9.594;2023-04-24T08:55:15;2.60;;;1.60;;
18200;SDS011;9226;47.858;9.594;2023-04-24T08:57:44;3.67;;;1.50;;
18200;SDS011;9226;47.858;9.594;2023-04-24T09:00:10;4.03;;;1.60;;
18200;SDS011;9226;47.858;9.594;2023-04-24T09:02:38;4.33;;;1.53;;
18200;SDS011;9226;47.858;9.594;2023-04-24T09:05:07;1.50;;;1.10;;
18200;SDS011;9226;47.858;9.594;2023-04-24T09:07:33;2.83;;;1.20;;
18200;SDS011;9226;47.858;9.594;2023-04-24T09:10:01;4.53;;;1.23;;
18200;SDS011;9226;47.858;9.594;2023-04-24T09:12:28;1.20;;;1.10;;
18200;SDS011;9226;47.858;9.594;2023-04-24T09:14:53;1.80;;;1.20;;
18200;SDS011;9226;47.858;9.594;2023-04-24T09:17:20;2.17;;;1.57;;
18200;SDS011;9226;47.858;9.594;2023-04-24T09:19:47;2.20;;;1.20;;
18200;SDS011;9226;47.858;9.594;2023-04-24T09:22:13;2.00;;;1.27;;
18200;SDS011;9226;47.858;9.594;2023-04-24T09:24:40;2.10;;;1.53;;
18200;SDS011;9226;47.858;9.594;2023-04-24T09:27:05;1.20;;;1.10;;
18200;SDS011;9226;47.858;9.594;2023-04-24T09:29:31;1.53;;;1.20;;
18200;SDS011;9226;47.858;9.594;2023-04-24T09:31:58;2.27;;;1.10;;
18200;SDS011;9226;47.858;9.594;2023-04-24T09:34:24;1.33;;;1.00;;
18200;SDS011;9226;47.858;9.594;2023-04-24T09:36:51;3.03;;;1.40;;
18200;SDS011;9226;47.858;9.594;2023-04-24T09:39:19;4.40;;;1.13;;
18200;SDS011;9226;47.858;9.594;2023-04-24T09:44:12;1.40;;;1.00;;
18200;SDS011;9226;47.858;9.594;2023-04-24T09:46:42;3.07;;;1.13;;
18200;SDS011;9226;47.858;9.594;2023-04-24T09:49:12;2.10;;;1.20;;
18200;SDS011;9226;47.858;9.594;2023-04-24T09:51:40;2.30;;;1.13;;
18200;SDS011;9226;47.858;9.594;2023-04-24T09:54:15;2.70;;;1.40;;
18200;SDS011;9226;47.858;9.594;2023-04-24T09:56:46;1.57;;;1.07;;
18200;SDS011;9226;47.858;9.594;2023-04-24T09:59:14;1.73;;;0.93;;
18200;SDS011;9226;47.858;9.594;2023-04-24T10:01:41;5.77;;;1.60;;
18200;SDS011;9226;47.858;9.594;2023-04-24T10:04:16;1.50;;;1.10;;
18200;SDS011;9226;47.858;9.594;2023-04-24T10:06:46;2.47;;;1.30;;
18200;SDS011;9226;47.858;9.594;2023-04-24T10:09:14;5.93;;;1.33;;
18200;SDS011;9226;47.858;9.594;2023-04-24T10:11:44;3.57;;;1.27;;
18200;SDS011;9226;47.858;9.594;2023-04-24T10:14:12;3.23;;;1.50;;
18200;SDS011;9226;47.858;9.594;2023-04-24T10:16:39;4.57;;;1.33;;
18200;SDS011;9226;47.858;9.594;2023-04-24T10:19:05;1.37;;;1.00;;
18200;SDS011;9226;47.858;9.594;2023-04-24T10:21:31;2.67;;;1.30;;
18200;SDS011;9226;47.858;9.594;2023-04-24T10:23:59;2.50;;;0.97;;
18200;SDS011;9226;47.858;9.594;2023-04-24T10:26:28;2.13;;;1.40;;
18200;SDS011;9226;47.858;9.594;2023-04-24T10:28:54;2.50;;;1.03;;
18200;SDS011;9226;47.858;9.594;2023-04-24T10:31:23;2.73;;;1.30;;
18200;SDS011;9226;47.858;9.594;2023-04-24T10:33:50;2.33;;;1.50;;
18200;SDS011;9226;47.858;9.594;2023-04-24T10:36:17;2.40;;;1.30;;
18200;SDS011;9226;47.858;9.594;2023-04-24T10:38:43;4.53;;;1.20;;
18200;SDS011;9226;47.858;9.594;2023-04-24T10:41:12;4.67;;;1.20;;
18200;SDS011;9226;47.858;9.594;2023-04-24T10:43:44;1.63;;;1.27;;
18200;SDS011;9226;47.858;9.594;2023-04-24T10:46:10;4.13;;;1.37;;
18200;SDS011;9226;47.858;9.594;2023-04-24T10:48:44;2.13;;;1.20;;
18200;SDS011;9226;47.858;9.594;2023-04-24T10:51:19;2.20;;;1.40;;
18200;SDS011;9226;47.858;9.594;2023-04-24T10:53:47;5.00;;;1.13;;
18200;SDS011;9226;47.858;9.594;2023-04-24T10:56:15;4.10;;;1.27;;
18200;SDS011;9226;47.858;9.594;2023-04-24T11:01:44;2.57;;;1.47;;
18200;SDS011;9226;47.858;9.594;2023-04-24T11:04:03;2.03;;;1.20;;
18200;SDS011;9226;47.858;9.594;2023-04-24T11:08:57;3.43;;;1.37;;
18200;SDS011;9226;47.858;9.594;2023-04-24T11:11:30;2.73;;;1.67;;
18200;SDS011;9226;47.858;9.594;2023-04-24T11:19:10;1.57;;;1.27;;
18200;SDS011;9226;47.858;9.594;2023-04-24T11:26:56;3.27;;;1.27;;
18200;SDS011;9226;47.858;9.594;2023-04-24T11:34:47;3.13;;;1.40;;
18200;SDS011;9226;47.858;9.594;2023-04-24T11:37:14;3.97;;;1.33;;
18200;SDS011;9226;47.858;9.594;2023-04-24T11:39:40;2.20;;;1.20;;
18200;SDS011;9226;47.858;9.594;2023-04-24T11:42:06;3.03;;;1.73;;
18200;SDS011;9226;47.858;9.594;2023-04-24T11:44:33;2.73;;;1.30;;
18200;SDS011;9226;47.858;9.594;2023-04-24T11:46:59;4.83;;;1.60;;
18200;SDS011;9226;47.858;9.594;2023-04-24T11:49:25;4.30;;;1.50;;
18200;SDS011;9226;47.858;9.594;2023-04-24T11:51:54;1.83;;;1.33;;
18200;SDS011;9226;47.858;9.594;2023-04-24T11:54:20;1.67;;;1.20;;
18200;SDS011;9226;47.858;9.594;2023-04-24T11:56:48;1.93;;;1.30;;
18200;SDS011;9226;47.858;9.594;2023-04-24T11:59:14;4.70;;;1.50;;
18200;SDS011;9226;47.858;9.594;2023-04-24T12:01:46;2.20;;;1.17;;
18200;SDS011;9226;47.858;9.594;2023-04-24T12:04:12;2.63;;;1.20;;
18200;SDS011;9226;47.858;9.594;2023-04-24T12:06:39;2.00;;;1.40;;
18200;SDS011;9226;47.858;9.594;2023-04-24T12:09:04;1.77;;;1.10;;
18200;SDS011;9226;47.858;9.594;2023-04-24T12:11:30;2.93;;;1.30;;
18200;SDS011;9226;47.858;9.594;2023-04-24T12:13:55;2.27;;;1.40;;
18200;SDS011;9226;47.858;9.594;2023-04-24T12:16:20;2.87;;;1.40;;
18200;SDS011;9226;47.858;9.594;2023-04-24T12:18:46;2.57;;;1.20;;
18200;SDS011;9226;47.858;9.594;2023-04-24T12:21:18;3.33;;;1.20;;
18200;SDS011;9226;47.858;9.594;2023-04-24T12:23:45;5.23;;;1.17;;
18200;SDS011;9226;47.858;9.594;2023-04-24T12:26:11;2.33;;;1.20;;
18200;SDS011;9226;47.858;9.594;2023-04-24T12:28:38;1.40;;;1.10;;
18200;SDS011;9226;47.858;9.594;2023-04-24T12:31:03;4.50;;;1.40;;
18200;SDS011;9226;47.858;9.594;2023-04-24T12:33:32;2.90;;;1.30;;
18200;SDS011;9226;47.858;9.594;2023-04-24T12:35:59;1.60;;;1.10;;
18200;SDS011;9226;47.858;9.594;2023-04-24T12:38:26;3.07;;;1.10;;
18200;SDS011;9226;47.858;9.594;2023-04-24T12:41:02;1.37;;;1.13;;
18200;SDS011;9226;47.858;9.594;2023-04-24T12:43:28;3.67;;;1.30;;
18200;SDS011;9226;47.858;9.594;2023-04-24T12:45:54;1.40;;;1.13;;
18200;SDS011;9226;47.858;9.594;2023-04-24T12:48:19;2.00;;;1.10;;
18200;SDS011;9226;47.858;9.594;2023-04-24T12:50:46;1.77;;;1.17;;
18200;SDS011;9226;47.858;9.594;2023-04-24T12:53:11;1.63;;;1.10;;
18200;SDS011;9226;47.858;9.594;2023-04-24T12:55:36;2.20;;;1.37;;
18200;SDS011;9226;47.858;9.594;2023-04-24T12:58:02;2.10;;;1.20;;
18200;SDS011;9226;47.858;9.594;2023-04-24T13:00:28;3.57;;;1.50;;
18200;SDS011;9226;47.858;9.594;2023-04-24T13:02:53;5.60;;;2.10;;
18200;SDS011;9226;47.858;9.594;2023-04-24T13:05:19;2.60;;;1.30;;
18200;SDS011;9226;47.858;9.594;2023-04-24T13:07:45;2.53;;;1.50;;
18200;SDS011;9226;47.858;9.594;2023-04-24T13:10:10;2.10;;;1.30;;
18200;SDS011;9226;47.858;9.594;2023-04-24T13:12:36;1.30;;;1.20;;
18200;SDS011;9226;47.858;9.594;2023-04-24T13:15:02;4.30;;;1.60;;
18200;SDS011;9226;47.858;9.594;2023-04-24T13:17:28;6.10;;;1.73;;
18200;SDS011;9226;47.858;9.594;2023-04-24T13:19:54;2.77;;;1.33;;
18200;SDS011;9226;47.858;9.594;2023-04-24T13:22:19;2.80;;;1.30;;
18200;SDS011;9226;47.858;9.594;2023-04-24T13:24:45;2.97;;;1.50;;
18200;SDS011;9226;47.858;9.594;2023-04-24T13:27:10;2.63;;;1.53;;
18200;SDS011;9226;47.858;9.594;2023-04-24T13:29:36;2.37;;;1.40;;
18200;SDS011;9226;47.858;9.594;2023-04-24T13:32:02;2.30;;;1.50;;
18200;SDS011;9226;47.858;9.594;2023-04-24T13:34:27;6.73;;;1.30;;
18200;SDS011;9226;47.858;9.594;2023-04-24T13:36:53;2.23;;;1.53;;
18200;SDS011;9226;47.858;9.594;2023-04-24T13:39:20;2.27;;;1.33;;
18200;SDS011;9226;47.858;9.594;2023-04-24T13:41:46;2.70;;;1.60;;
18200;SDS011;9226;47.858;9.594;2023-04-24T13:44:13;1.50;;;1.20;;
18200;SDS011;9226;47.858;9.594;2023-04-24T13:46:39;1.80;;;1.50;;
18200;SDS011;9226;47.858;9.594;2023-04-24T13:49:05;2.47;;;1.27;;
18200;SDS011;9226;47.858;9.594;2023-04-24T13:51:30;2.53;;;1.30;;
18200;SDS011;9226;47.858;9.594;2023-04-24T13:53:55;1.93;;;1.33;;
18200;SDS011;9226;47.858;9.594;2023-04-24T13:56:21;1.93;;;1.23;;
18200;SDS011;9226;47.858;9.594;2023-04-24T13:58:47;2.30;;;1.43;;
18200;SDS011;9226;47.858;9.594;2023-04-24T14:01:13;7.50;;;1.60;;
18200;SDS011;9226;47.858;9.594;2023-04-24T14:03:40;1.93;;;1.17;;
18200;SDS011;9226;47.858;9.594;2023-04-24T14:06:06;1.80;;;1.10;;
18200;SDS011;9226;47.858;9.594;2023-04-24T14:08:32;2.30;;;1.43;;
18200;SDS011;9226;47.858;9.594;2023-04-24T14:10:57;2.50;;;1.30;;
18200;SDS011;9226;47.858;9.594;2023-04-24T14:13:22;3.40;;;1.20;;
18200;SDS011;9226;47.858;9.594;2023-04-24T14:15:48;2.03;;;1.43;;
18200;SDS011;9226;47.858;9.594;2023-04-24T14:18:14;1.77;;;1.27;;
18200;SDS011;9226;47.858;9.594;2023-04-24T14:20:39;4.33;;;1.70;;
18200;SDS011;9226;47.858;9.594;2023-04-24T14:23:05;4.83;;;1.40;;
18200;SDS011;9226;47.858;9.594;2023-04-24T14:25:30;2.87;;;1.20;;
18200;SDS011;9226;47.858;9.594;2023-04-24T14:27:56;2.20;;;1.30;;
18200;SDS011;9226;47.858;9.594;2023-04-24T14:30:21;2.60;;;1.30;;
18200;SDS011;9226;47.858;9.594;2023-04-24T14:32:47;4.07;;;1.50;;
18200;SDS011;9226;47.858;9.594;2023-04-24T14:35:13;3.17;;;1.60;;
18200;SDS011;9226;47.858;9.594;2023-04-24T14:37:39;4.20;;;1.43;;
18200;SDS011;9226;47.858;9.594;2023-04-24T14:40:06;1.83;;;1.47;;
18200;SDS011;9226;47.858;9.594;2023-04-24T14:42:33;2.10;;;1.13;;
18200;SDS011;9226;47.858;9.594;2023-04-24T14:44:59;3.20;;;1.90;;
18200;SDS011;9226;47.858;9.594;2023-04-24T14:47:24;2.63;;;1.30;;
18200;SDS011;9226;47.858;9.594;2023-04-24T14:49:49;2.47;;;1.40;;
18200;SDS011;9226;47.858;9.594;2023-04-24T14:52:15;3.30;;;1.47;;
18200;SDS011;9226;47.858;9.594;2023-04-24T14:54:41;1.10;;;1.00;;
18200;SDS011;9226;47.858;9.594;2023-04-24T14:57:07;2.13;;;1.33;;
18200;SDS011;9226;47.858;9.594;2023-04-24T14:59:33;1.67;;;1.37;;
18200;SDS011;9226;47.858;9.594;2023-04-24T15:01:58;4.60;;;1.50;;
18200;SDS011;9226;47.858;9.594;2023-04-24T15:04:24;3.70;;;1.60;;
18200;SDS011;9226;47.858;9.594;2023-04-24T15:06:53;2.17;;;1.30;;
18200;SDS011;9226;47.858;9.594;2023-04-24T15:09:22;4.20;;;1.50;;
18200;SDS011;9226;47.858;9.594;2023-04-24T15:11:50;2.37;;;1.50;;
18200;SDS011;9226;47.858;9.594;2023-04-24T15:14:16;2.57;;;1.43;;
18200;SDS011;9226;47.858;9.594;2023-04-24T15:16:43;2.20;;;1.50;;